Página principal
METAR-TAF:

METAR-TAF

Aeroportos :

La Gomera, Espanha

latitude: 28-01-47N, longitude: 017-12-53W, altura: 218 m

Observação actual do tempo

O boletim foi feito há 29 minutos, às 20:00 UTC
Vento 4 kt de oes-sudoeste, variando entre su-sudoeste e oeste
Temperatura 21°C
Humidade 69%
Pressão 1020 hPa
Visibilidade 10 km ou mais
sem nuvens abaixo de 1500 metros e sem cumulonimbus

METAR: GCGM 132000Z AUTO 24004KT 210V280 CAVOK 21/15 Q1020 RMK R09/20003KT 150V260 ARP/23004KT 180V280

Hora: 21:29 (20:29 UTC)

Previsão

O boletim foi feito há 6 horas e 29 minutos, às 14:00 UTC
Previsão válida de 13 às 15 UTC a 14 às 15 UTC
Vento 8 kt de sudoeste
Visibilidade 10 km ou mais
Poucas nuvensa uma altura de 3000 ft
Probabilidade 30% :
Temporariamente
de 13 às 17 UTC a 13 às 23 UTC
Vento 15 kt com direcção variável com rajadas de 25 kt

TAF: GCGM 131400Z 1315/1415 23008KT 9999 FEW030 TX23/1414Z TN19/1406Z PROB30 TEMPO 1317/1323 VRB15G25KT

Observações e previsões do tempo de mais de 4000 aeroportos (mensagens METAR e TAF).

As estações disponíveis são os pontos amarelos e vermelhos sobre o mapa.

Mova o rato sobre o mapa para ver o nome da estação.

Depois clique no ponto para visualizar as observações e previsões meteorológicas.

Para alterar o mapa : clique nos botões verdes com uma cruz preta para aumentar o zoom; no botão verde com uma pitada de zoom; ou nas setas verdes para mapas adjacentes.


METAR-TAF: